Latest Weather Observations for Hughenden

IDQ60801

Issued at 11:02 pm EST Monday 20 February 2017 (issued every 30 minutes, with the page automatically refreshed every 10 minutes)

About weather observations | Map of weather stations | Latest weather observations for QLD | Other Formats
Station Details ID: 030022 Name: HUGHENDEN AIRPORT Lat: -20.82 Lon: 144.23 Height: 316.4 m
Data from the previous 72 hours. | See also: Recent months at Hughenden
Date/Time
EST
Temp
°C
App
Temp
°C
Dew
Point
°C
Rel
Hum
%
Delta-T
°C
Wind Press
QNH
hPa
Press
MSL
hPa
Rain since
9am
mm
Dir  Spd
km/h
Gust
km/h
Spd
kts
Gust
kts
20/10:30pm 27.0 26.7 13.4 43 8.1 E 7 9 4 5 1011.3 1009.0 0.0
20/10:00pm 27.5 26.4 11.9 38 9.1 SSE 9 11 5 6 1011.2 1008.9 0.0
20/09:30pm 27.7 26.5 11.7 37 9.3 SSE 9 9 5 5 1011.1 1008.8 0.0
20/09:00pm 28.1 28.0 13.2 39 8.9 SSE 6 9 3 5 1011.0 1008.7 0.0
20/08:30pm 28.6 27.3 11.2 34 10.1 S 9 9 5 5 1010.7 1008.3 0.0
20/08:00pm 29.6 28.0 10.2 30 11.1 SSW 9 13 5 7 1010.4 1008.0 0.0
20/07:30pm 30.5 27.8 8.8 26 12.2 S 13 17 7 9 1009.6 1007.3 0.0
20/07:00pm 31.1 28.4 8.8 25 12.6 S 13 17 7 9 1009.3 1007.0 0.0
20/06:30pm 31.8 29.2 9.3 25 12.9 S 13 17 7 9 1008.9 1006.6 0.0
20/06:00pm 32.3 31.3 10.9 27 12.6 SE 7 9 4 5 1008.8 1006.5 0.0
20/05:30pm 32.7 30.7 10.1 25 13.1 SE 11 15 6 8 1008.6 1006.3 0.0
20/05:00pm 32.9 31.7 10.3 25 13.2 SSE 7 11 4 6 1008.6 1006.3 0.0
20/04:30pm 33.1 31.4 9.8 24 13.5 S 9 11 5 6 1008.5 1006.2 0.0
20/04:00pm 33.3 32.0 11.2 26 13.1 SSE 9 13 5 7 1008.8 1006.5 0.0
20/03:30pm 33.4 31.6 10.7 25 13.3 SSW 11 19 6 10 1009.0 1006.7 0.0
20/03:00pm 33.6 32.9 11.5 26 13.2 SSW 6 9 3 5 1009.4 1007.1 0.0
20/02:30pm 33.6 32.7 11.5 26 13.2 SSE 7 19 4 10 1009.5 1007.2 0.0
20/02:00pm 34.1 33.2 10.7 24 13.8 SSW 6 19 3 10 1009.6 1007.3 0.0
20/01:30pm 33.4 30.8 9.4 23 13.8 SE 13 20 7 11 1009.6 1007.3 0.0
20/01:00pm 32.6 29.0 10.0 25 13.1 SSE 19 26 10 14 1010.2 1007.8 0.0
20/12:30pm 32.3 29.2 11.5 28 12.3 SE 19 28 10 15 1010.5 1008.1 0.0
20/12:00pm 31.7 30.0 12.5 31 11.5 SE 13 22 7 12 1011.0 1008.7 0.0
20/11:30am 31.3 31.7 13.6 34 10.8 NE 4 11 2 6 1011.4 1009.1 0.0
20/11:00am 30.4 29.9 14.9 39 9.6 E 11 19 6 10 1011.8 1009.5 0.0
20/10:30am 30.5 30.4 16.1 41 9.1 ESE 11 24 6 13 1011.8 1009.5 0.0
20/10:00am 28.8 28.7 17.0 49 7.5 E 13 17 7 9 1011.9 1009.6 0.0
20/09:30am 28.1 28.3 15.7 46 7.7 SE 9 15 5 8 1011.8 1009.5 0.0
20/09:00am 26.7 29.8 20.3 68 4.2 NNW 4 7 2 4 1011.8 1009.5 0.4
20/08:30am 25.2 27.7 20.2 74 3.3 S 7 9 4 5 1011.7 1009.4 0.4
20/08:00am 24.5 26.6 20.2 77 2.8 S 9 15 5 8 1011.3 1009.0 0.4
20/07:30am 23.6 26.5 21.1 86 1.7 SE 7 9 4 5 1011.3 1009.0 0.4
20/07:00am 22.1 25.7 19.8 87 1.5 CALM 0 0 0 0 1011.1 1008.8 0.4
20/06:30am 21.9 25.4 19.6 87 1.5 CALM 0 0 0 0 1010.5 1008.1 0.4
20/06:00am 22.4 26.1 19.9 86 1.6 CALM 0 0 0 0 1010.3 1007.9 0.4
20/05:30am 22.3 24.7 20.0 87 1.5 SSE 7 7 4 4 1009.8 1007.5 0.4
20/05:00am 22.6 26.4 20.1 86 1.6 CALM 0 0 0 0 1009.7 1007.4 0.4
20/04:30am 22.8 25.3 20.3 86 1.6 ENE 7 7 4 4 1009.6 1007.3 0.4
20/04:00am 22.9 25.8 20.6 87 1.5 ENE 6 7 3 4 1009.7 1007.4 0.4
20/03:30am 22.9 26.4 20.4 86 1.6 SSE 2 7 1 4 1009.6 1007.3 0.4
20/03:00am 23.0 27.0 20.5 86 1.6 CALM 0 0 0 0 1009.7 1007.4 0.4
20/02:30am 23.1 27.0 20.4 85 1.8 CALM 0 0 0 0 1009.8 1007.5 0.4
20/02:00am 23.3 27.3 20.6 85 1.8 CALM 0 0 0 0 1010.2 1007.8 0.4
20/01:30am 23.4 27.4 20.5 84 1.9 CALM 0 0 0 0 1010.4 1008.0 0.4
20/01:00am 23.7 27.6 20.4 82 2.2 CALM 0 0 0 0 1010.6 1008.2 0.4
20/12:30am 24.1 28.1 20.6 81 2.3 CALM 0 0 0 0 1011.0 1008.7 0.4
20/12:00am 24.2 26.9 20.3 79 2.6 NNE 6 7 3 4 1011.1 1008.8 0.4
 
Date/Time
EST
Temp
°C
App
Temp
°C
Dew
Point
°C
Rel
Hum
%
Delta-T
°C
Wind Press
QNH
hPa
Press
MSL
hPa
Rain since
9am
mm
Dir  Spd
km/h
Gust
km/h
Spd
kts
Gust
kts
19/11:30pm 24.4 26.7 19.9 76 2.9 NNE 7 9 4 5 1011.1 1008.8 0.4
19/11:00pm 24.4 26.4 19.9 76 2.9 N 9 11 5 6 1011.3 1009.0 0.4
19/10:30pm 24.4 26.5 20.1 77 2.8 N 9 11 5 6 1011.0 1008.7 0.4
19/10:00pm 24.6 26.8 20.3 77 2.8 N 9 11 5 6 1011.1 1008.8 0.4
19/09:30pm 24.6 26.8 20.3 77 2.8 N 9 11 5 6 1010.8 1008.5 0.4
19/09:00pm 24.7 27.5 20.8 79 2.6 NNE 7 9 4 5 1010.7 1008.3 0.4
19/08:30pm 24.8 28.8 20.5 77 2.8 CALM 0 0 0 0 1010.6 1008.2 0.4
19/08:00pm 25.2 29.4 20.9 77 2.9 CALM 0 0 0 0 1010.3 1007.9 0.4
19/07:30pm 26.0 28.4 19.6 68 4.2 NNW 6 6 3 3 1009.8 1007.5 0.4
19/07:00pm 26.2 28.4 19.6 67 4.3 NW 7 9 4 5 1009.6 1007.3 0.4
19/06:30pm 27.2 28.7 18.8 60 5.5 NW 9 15 5 8 1009.6 1007.3 0.4
19/06:00pm 27.7 28.7 18.7 58 5.9 NW 11 15 6 8 1009.1 1006.8 0.4
19/05:30pm 28.3 29.5 19.0 57 6.1 WNW 11 15 6 8 1009.0 1006.7 0.4
19/05:00pm 28.2 29.3 18.9 57 6.1 W 11 17 6 9 1008.9 1006.6 0.4
19/04:30pm 28.2 29.8 19.2 58 5.9 WSW 9 13 5 7 1008.9 1006.6 0.4
19/04:00pm 27.4 29.5 18.9 59 5.5 W 6 11 3 6 1008.9 1006.6 0.4
19/03:30pm 26.5 28.3 18.4 61 5.2 W 6 9 3 5 1008.9 1006.6 0.4
19/03:00pm 26.2 28.4 19.1 65 4.6 NE 6 11 3 6 1008.9 1006.6 0.4
19/02:30pm 25.7 27.1 19.6 69 4.0 ENE 11 17 6 9 1009.2 1006.9 0.4
19/02:00pm 25.4 27.5 19.3 69 4.0 N 7 11 4 6 1010.3 1007.9 0.4
19/01:30pm 25.0 27.4 18.7 68 4.1 NW 4 9 2 5 1010.8 1008.5 0.4
19/01:00pm 24.9 28.0 18.6 68 4.1 CALM 0 0 0 0 1011.3 1009.0 0.4
19/12:30pm 24.6 26.9 19.4 73 3.4 W 6 9 3 5 1012.1 1009.8 0.4
19/12:00pm 24.6 26.9 19.4 73 3.4 W 6 9 3 5 1012.4 1010.1 0.2
19/11:30am 24.8 26.8 18.7 69 3.9 W 6 9 3 5 1012.7 1010.4 0.0
19/11:00am 24.8 27.7 19.8 74 3.3 W 4 7 2 4 1012.8 1010.5 0.0
19/10:30am 24.5 28.0 19.6 74 3.2 CALM 0 0 0 0 1012.8 1010.5 0.0
19/10:00am 24.1 27.5 19.4 75 3.0 CALM 0 0 0 0 1012.8 1010.5 0.0
19/09:30am 23.5 27.0 19.6 79 2.5 CALM 0 0 0 0 1013.0 1010.7 0.0
19/09:00am 23.2 26.5 20.7 86 1.6 NNE 4 7 2 4 1013.0 1010.7 3.2
19/08:30am 22.6 25.0 20.1 86 1.6 NNE 7 9 4 5 1012.8 1010.5 3.2
19/08:00am 22.4 25.9 19.6 84 1.8 CALM 0 4 0 2 1012.6 1010.3 3.0
19/07:30am 22.1 25.6 19.5 85 1.7 CALM 0 0 0 0 1012.4 1010.1 2.6
19/07:00am 22.0 25.5 19.5 86 1.6 CALM 0 0 0 0 1012.0 1009.7 2.2
19/06:30am 22.1 24.3 19.6 86 1.6 SSW 7 9 4 5 1011.5 1009.2 1.6
19/06:00am 22.2 23.7 19.7 86 1.6 S 11 17 6 9 1011.2 1008.9 1.0
19/05:30am 22.3 23.4 19.7 85 1.7 SSW 13 17 7 9 1010.9 1008.6 0.6
19/05:00am 22.8 24.0 20.0 84 1.8 S 13 20 7 11 1010.9 1008.6 0.2
19/04:30am 23.0 23.6 19.4 80 2.3 S 15 20 8 11 1010.4 1008.0 0.2
19/04:00am 23.5 25.0 19.8 80 2.4 SSW 11 13 6 7 1010.2 1007.8 0.0
19/03:30am 24.4 26.4 19.2 73 3.4 SSW 7 11 4 6 1010.1 1007.7 0.0
19/03:00am 24.6 28.2 19.7 74 3.2 CALM 0 0 0 0 1010.1 1007.7 0.0
19/02:30am 24.7 28.1 19.3 72 3.5 CALM 0 0 0 0 1010.5 1008.1 0.0
19/02:00am 24.7 26.9 19.3 72 3.5 SE 6 7 3 4 1010.9 1008.6 0.0
19/01:30am 24.6 26.3 19.4 73 3.4 SE 9 15 5 8 1011.2 1008.9 0.0
19/01:00am 24.5 26.1 20.0 76 3.0 SSE 11 17 6 9 1011.5 1009.2 0.0
19/12:30am 24.7 27.1 20.0 75 3.1 N 7 9 4 5 1011.2 1008.9 0.0
19/12:00am 24.5 26.8 19.8 75 3.1 N 7 11 4 6 1011.5 1009.2 0.0
 
Date/Time
EST
Temp
°C
App
Temp
°C
Dew
Point
°C
Rel
Hum
%
Delta-T
°C
Wind Press
QNH
hPa
Press
MSL
hPa
Rain since
9am
mm
Dir  Spd
km/h
Gust
km/h
Spd
kts
Gust
kts
18/11:30pm 24.5 25.7 19.8 75 3.1 NW 13 19 7 10 1011.7 1009.4 0.0
18/11:00pm 24.5 24.9 19.8 75 3.1 NW 17 22 9 12 1012.0 1009.7 0.0
18/10:30pm 24.6 24.8 19.4 73 3.4 WNW 17 24 9 13 1011.5 1009.2 0.0
18/10:00pm 24.9 24.6 19.1 70 3.8 WNW 19 22 10 12 1011.6 1009.3 0.0
18/09:30pm 27.0 26.5 19.1 62 5.1 NNW 20 28 11 15 1011.8 1009.5 0.0
18/09:00pm 28.4 27.4 17.9 53 6.8 NNW 20 28 11 15 1011.6 1009.3 0.0
18/08:30pm 29.0 26.3 16.5 46 7.9 NNW 26 35 14 19 1011.1 1008.8 0.0
18/08:00pm 31.7 30.4 16.8 40 9.5 W 19 24 10 13 1009.8 1007.5 0.0
18/07:30pm 31.8 30.6 14.0 34 10.9 W 13 19 7 10 1009.1 1006.8 0.0
18/07:00pm 32.7 31.3 13.4 31 11.8 SW 13 20 7 11 1008.7 1006.4 0.0
18/06:30pm 33.3 32.1 12.9 29 12.4 WSW 11 17 6 9 1008.5 1006.2 0.0
18/06:00pm 33.8 32.4 13.3 29 12.6 W 13 17 7 9 1008.4 1006.1 0.0
18/05:30pm 34.3 32.5 13.2 28 12.9 WSW 15 22 8 12 1008.1 1005.8 0.0
18/05:00pm 35.4 34.0 13.5 26 13.6 WSW 13 28 7 15 1007.6 1005.2 0.0
18/04:30pm 35.5 34.2 12.5 25 14.0 SW 11 20 6 11 1007.5 1005.1 0.0
18/04:00pm 35.7 33.9 12.0 24 14.4 WSW 13 20 7 11 1007.8 1005.4 0.0
18/03:30pm 35.4 35.0 13.0 26 13.7 S 7 13 4 7 1008.3 1006.0 0.0
18/03:00pm 35.6 35.3 11.3 23 14.6 WSW 4 13 2 7 1008.9 1006.6 0.0
18/02:30pm 35.1 33.7 12.1 25 13.9 WSW 11 20 6 11 1009.5 1007.2 0.0
18/02:00pm 34.9 32.7 12.0 25 13.8 SW 15 20 8 11 1010.2 1007.8 0.0
18/01:30pm 35.1 34.2 11.5 24 14.1 SW 7 15 4 8 1010.7 1008.3 0.0
18/01:00pm 34.3 33.0 11.4 25 13.7 WNW 9 19 5 10 1011.1 1008.8 0.0
18/12:30pm 34.1 31.8 11.9 26 13.3 NNW 15 19 8 10 1011.5 1009.2 0.0
18/12:00pm 33.1 31.9 12.7 29 12.4 WNW 11 19 6 10 1011.9 1009.6 0.0
18/11:30am 32.3 29.9 12.5 30 11.9 NW 17 22 9 12 1012.3 1010.0 0.0
18/11:00am 32.2 31.6 12.4 30 11.9 NNE 7 11 4 6 1012.5 1010.2 0.0
18/10:30am 31.2 31.4 13.0 33 11.0 NNE 4 7 2 4 1012.7 1010.4 0.0
18/10:00am 30.1 30.8 16.1 42 8.8 S 7 11 4 6 1012.9 1010.6 0.0
18/09:30am 28.8 30.6 16.4 47 7.8 WNW 2 7 1 4 1013.0 1010.7 0.0
18/09:00am 28.4 30.5 16.3 47 7.6 CALM 0 2 0 1 1012.9 1010.6 0.0
18/08:30am 27.6 29.8 16.6 51 6.9 CALM 0 0 0 0 1012.8 1010.5 0.0
18/08:00am 26.5 28.4 16.7 55 6.2 SE 2 7 1 4 1012.8 1010.5 0.0
18/07:30am 25.9 27.3 17.3 59 5.4 E 6 7 3 4 1012.6 1010.3 0.0
18/07:00am 23.6 26.7 18.7 74 3.1 CALM 0 6 0 3 1012.2 1009.9 0.0
18/06:30am 23.6 25.9 17.8 70 3.7 NNE 2 6 1 3 1011.8 1009.5 0.0
18/06:00am 23.8 25.3 17.5 68 4.0 NE 6 9 3 5 1011.5 1009.2 0.0
18/05:30am 23.7 26.4 17.7 69 3.8 CALM 0 0 0 0 1011.4 1009.1 0.0
18/05:00am 24.0 26.8 18.0 69 3.8 CALM 0 0 0 0 1011.3 1009.0 0.0
18/04:30am 24.0 26.8 18.0 69 3.8 CALM 0 0 0 0 1011.2 1008.9 0.0
18/04:00am 23.9 26.7 17.9 69 3.8 CALM 0 0 0 0 1011.2 1008.9 0.0
18/03:30am 24.5 26.2 17.2 63 4.6 N 4 6 2 3 1011.1 1008.8 0.0
18/03:00am 24.7 26.1 17.4 64 4.6 ENE 6 6 3 3 1011.3 1009.0 0.0
18/02:30am 24.8 26.0 17.3 63 4.7 ENE 7 9 4 5 1011.2 1008.9 0.0
18/02:00am 25.2 26.5 17.1 60 5.1 ENE 6 7 3 4 1011.3 1009.0 0.0
18/01:30am 25.5 26.6 17.2 60 5.2 NE 7 9 4 5 1011.5 1009.2 0.0
18/01:00am 26.0 27.1 16.5 55 5.9 ENE 6 9 3 5 1011.6 1009.3 0.0
18/12:30am 26.7 26.3 16.3 53 6.5 NNE 13 17 7 9 1011.9 1009.6 0.0
18/12:00am 26.9 26.6 16.5 53 6.5 NNE 13 17 7 9 1012.2 1009.9 0.0
 
Date/Time
EST
Temp
°C
App
Temp
°C
Dew
Point
°C
Rel
Hum
%
Delta-T
°C
Wind Press
QNH
hPa
Press
MSL
hPa
Rain since
9am
mm
Dir  Spd
km/h
Gust
km/h
Spd
kts
Gust
kts
17/11:30pm 27.0 28.0 17.8 57 5.9 NE 9 13 5 7 1012.4 1010.1 0.0

Other Formats:

Comma delimited format used in spreadsheet applications
http://www.bom.gov.au/fwo/IDQ60801/IDQ60801.94343.axf

JavaScript Object Notation format (JSON) in row-major order
http://www.bom.gov.au/fwo/IDQ60801/IDQ60801.94343.json